Flight Track Log - Related Links

Times and Time Zones

All times are in EDT time to prevent confusion due to time zone crossing. See the DAL110 flight status page for this flight to view local times or setup timezone preferences in your user account.

Time Position Orientation Groundspeed Altitude Reporting Facility
EDT Latitude Longitude Course Direction KTS MPH feet Rate Location/Type
Thu 07:56:56 PM -33.6240 -59.6240 315° West 374 430 32,000  Level FlightAware ADS-B
Thu 07:57:04 PM -33.6160 -59.6360 309° West 375 432 32,000  Level FlightAware ADS-B
Thu 07:57:12 PM -33.6060 -59.6500 311° West 375 432 32,000  Level FlightAware ADS-B
Thu 07:57:24 PM -33.5940 -59.6680 309° West 375 432 32,000  Level FlightAware ADS-B
Thu 07:57:32 PM -33.5840 -59.6820 311° West 377 434 32,000  Level FlightAware ADS-B
Thu 07:57:40 PM -33.5760 -59.6940 309° West 376 433 32,000  Level FlightAware ADS-B
Thu 07:57:42 PM -33.5750 -59.6950 320° Northwest 376 433 32,000  Level FlightAware ADS-B
Thu 07:57:58 PM -33.5520 -59.7200 318° Northwest 380 437 32,000  Level FlightAware ADS-B
Thu 07:58:08 PM -33.5370 -59.7310 329° Northwest 384 442 32,000  Level FlightAware ADS-B
Thu 07:58:13 PM -33.5310 -59.7360 325° Northwest 384 442 32,000  Level FlightAware ADS-B
Thu 07:58:19 PM -33.5230 -59.7410 332° Northwest 392 451 32,000  Level FlightAware ADS-B
Thu 07:58:33 PM -33.4970 -59.7570 333° Northwest 398 458 32,000  Level FlightAware ADS-B
Thu 07:58:38 PM -33.4890 -59.7620 332° Northwest 399 459 32,000  Level FlightAware ADS-B
Thu 07:58:49 PM -33.4720 -59.7730 332° Northwest 399 459 32,000  Level FlightAware ADS-B
Thu 07:58:58 PM -33.4580 -59.7820 332° Northwest 398 458 32,000  Level FlightAware ADS-B
Thu 07:59:08 PM -33.4390 -59.7910 338° Northwest 394 453 32,000  Level FlightAware ADS-B
Thu 07:59:13 PM -33.4320 -59.7940 340° North 394 453 32,000  Level FlightAware ADS-B
Thu 07:59:23 PM -33.4110 -59.8010 344° North 415 478 32,000  Level FlightAware ADS-B
Thu 07:59:37 PM -33.3860 -59.8100 343° North 409 471 32,000  Level FlightAware ADS-B
Thu 07:59:43 PM -33.3750 -59.8140 343° North 409 471 32,000  Level FlightAware ADS-B
Thu 07:59:53 PM -33.3590 -59.8210 340° North 410 472 32,000  Level FlightAware ADS-B
Thu 08:00:01 PM -33.3420 -59.8270 344° North 411 473 32,000  Level FlightAware ADS-B
Thu 08:00:04 PM -33.3370 -59.8290 342° North 411 473 32,000  Level FlightAware ADS-B
Thu 08:00:12 PM -33.3240 -59.8340 342° North 412 474 32,000  Level FlightAware ADS-B
Thu 08:02:00 PM -33.0983 -59.9402 338° Northwest  Level Estimated
Thu 08:03:00 PM -32.9729 -59.9990 339° North  Level Estimated
Thu 08:04:00 PM -32.8474 -60.0576 339° North  Level Estimated
Thu 08:05:00 PM -32.7220 -60.1160 339° North  Level Estimated
Thu 08:06:00 PM -32.5965 -60.1743 339° North  Level Estimated
Thu 08:07:00 PM -32.4709 -60.2324 339° North  Level Estimated
Thu 08:08:00 PM -32.3454 -60.2904 339° North  Level Estimated
Thu 08:09:00 PM -32.2198 -60.3481 339° North  Level Estimated
Thu 08:10:00 PM -32.0942 -60.4058 339° North  Level Estimated
Thu 08:11:00 PM -31.9685 -60.4632 339° North  Level Estimated
Thu 08:12:00 PM -31.8429 -60.5205 339° North  Level Estimated
Thu 08:13:00 PM -31.7172 -60.5777 339° North  Level Estimated
Thu 08:14:00 PM -31.5914 -60.6347 339° North  Level Estimated
Thu 08:15:00 PM -31.4657 -60.6916 339° North  Level Estimated
Thu 08:16:00 PM -31.3527 -60.7425 339° North  Level Estimated
Thu 08:17:00 PM -31.2397 -60.7933 339° North  Level Estimated
Thu 08:18:00 PM -31.1266 -60.8441 339° North  Level Estimated
Thu 08:19:00 PM -31.0136 -60.8946 339° North  Level Estimated
Thu 08:20:00 PM -30.9005 -60.9451 339° North  Level Estimated
Thu 08:21:00 PM -30.7874 -60.9955 339° North  Level Estimated
Thu 08:22:00 PM -30.6743 -61.0457 339° North  Level Estimated
Thu 08:23:00 PM -30.5611 -61.0958 339° North  Level Estimated
Thu 08:23:41 PM -30.8700 -61.1700 339° North 423 487 32,000  Level FlightAware ADS-B
Thu 08:23:43 PM -30.8560 -61.1810 326° Northwest 423 487 32,000  Level FlightAware ADS-B
Thu 08:24:10 PM -30.8180 -61.2090 328° Northwest 423 487 32,000  Level FlightAware ADS-B
Thu 08:24:22 PM -30.8010 -61.2220 327° Northwest 423 487 32,000  Level FlightAware ADS-B
Thu 08:24:27 PM -30.7800 -61.2380 327° Northwest 424 488 32,000  Level FlightAware ADS-B
Thu 08:24:36 PM -30.7650 -61.2490 328° Northwest 424 488 32,000  Level FlightAware ADS-B
Thu 08:24:44 PM -30.7500 -61.2600 328° Northwest 424 488 32,000  Level FlightAware ADS-B
Thu 08:24:46 PM -30.7480 -61.2610 337° Northwest 424 488 32,000  Level FlightAware ADS-B
Thu 08:24:53 PM -30.7370 -61.2690 328° Northwest 424 488 32,000  Level FlightAware ADS-B
Thu 08:25:18 PM -30.7020 -61.2960 326° Northwest 424 488 32,000  Level FlightAware ADS-B
Thu 08:25:30 PM -30.6850 -61.3080 329° Northwest 424 488 32,000  Level FlightAware ADS-B
Thu 08:25:42 PM -30.6680 -61.3210 327° Northwest 424 488 32,000  Level FlightAware ADS-B
Thu 08:25:54 PM -30.6510 -61.3340 327° Northwest 424 488 32,000  Level FlightAware ADS-B
Thu 08:26:06 PM -30.6340 -61.3460 329° Northwest 424 488 32,000  Level FlightAware ADS-B
Thu 08:26:13 PM -30.6010 -61.3690 329° Northwest 423 487 32,000  Level FlightAware ADS-B
Thu 08:26:18 PM -30.5940 -61.3740 328° Northwest 423 487 32,000  Level FlightAware ADS-B
Thu 08:26:23 PM -30.5860 -61.3810 323° Northwest 422 486 32,000  Level FlightAware ADS-B
Thu 08:26:33 PM -30.5690 -61.3930 329° Northwest 423 487 32,000  Level FlightAware ADS-B
Thu 08:26:40 PM -30.5580 -61.4010 328° Northwest 423 487 32,000  Level FlightAware ADS-B
Thu 08:26:48 PM -30.5440 -61.4110 328° Northwest 423 487 32,000  Level FlightAware ADS-B
Thu 08:26:57 PM -30.5310 -61.4210 326° Northwest 424 488 32,000  Level FlightAware ADS-B
Thu 08:27:05 PM -30.5160 -61.4330 325° Northwest 424 488 32,000  Level FlightAware ADS-B
Thu 08:27:09 PM -30.5100 -61.4380 324° Northwest 424 488 32,000  Level FlightAware ADS-B
Thu 08:27:17 PM -30.4960 -61.4470 331° Northwest 424 488 32,000  Level FlightAware ADS-B
Thu 08:27:25 PM -30.4830 -61.4570 326° Northwest 423 487 32,000  Level FlightAware ADS-B
Thu 08:27:29 PM -30.4760 -61.4610 334° Northwest 424 488 32,000  Level FlightAware ADS-B
Thu 08:27:35 PM -30.4660 -61.4690 325° Northwest 424 488 32,000  Level FlightAware ADS-B
Thu 08:27:45 PM -30.4480 -61.4820 328° Northwest 424 488 32,000  Level FlightAware ADS-B
Thu 08:27:57 PM -30.4300 -61.4960 326° Northwest 424 488 32,000  Level FlightAware ADS-B
Thu 08:28:05 PM -30.4150 -61.5070 328° Northwest 424 488 32,000  Level FlightAware ADS-B
Thu 08:28:13 PM -30.4030 -61.5150 330° Northwest 423 487 32,000  Level FlightAware ADS-B
Thu 08:28:17 PM -30.3970 -61.5200 324° Northwest 423 487 32,000  Level FlightAware ADS-B
Thu 08:28:21 PM -30.3900 -61.5250 328° Northwest 424 488 32,000  Level FlightAware ADS-B
Thu 08:28:33 PM -30.3700 -61.5400 327° Northwest 423 487 32,000  Level FlightAware ADS-B
Thu 08:28:41 PM -30.3590 -61.5480 328° Northwest 423 487 32,000  Level FlightAware ADS-B
Thu 08:28:49 PM -30.3450 -61.5580 328° Northwest 423 487 32,000  Level FlightAware ADS-B
Thu 08:28:53 PM -30.3370 -61.5640 327° Northwest 423 487 32,000  Level FlightAware ADS-B
Thu 08:29:01 PM -30.3240 -61.5740 326° Northwest 424 488 32,000  Level FlightAware ADS-B
Thu 08:29:09 PM -30.3110 -61.5830 329° Northwest 423 487 32,000  Level FlightAware ADS-B
Thu 08:29:17 PM -30.2970 -61.5930 328° Northwest 424 488 32,000  Level FlightAware ADS-B
Thu 08:29:19 PM -30.2940 -61.5950 330° Northwest 424 488 32,000  Level FlightAware ADS-B
Thu 08:29:29 PM -30.2770 -61.6080 327° Northwest 423 487 32,000  Level FlightAware ADS-B
Thu 08:29:37 PM -30.2640 -61.6180 326° Northwest 424 488 32,000  Level FlightAware ADS-B
Thu 08:29:45 PM -30.2510 -61.6270 329° Northwest 423 487 32,000  Level FlightAware ADS-B
Thu 08:29:49 PM -30.2440 -61.6320 328° Northwest 424 488 32,000  Level FlightAware ADS-B
Thu 08:29:57 PM -30.2320 -61.6410 327° Northwest 423 487 32,000  Level FlightAware ADS-B
Thu 08:30:05 PM -30.2180 -61.6510 328° Northwest 424 488 32,000  Level FlightAware ADS-B
Thu 08:30:13 PM -30.2030 -61.6620 328° Northwest 424 488 32,000  Level FlightAware ADS-B
Thu 08:30:18 PM -30.1980 -61.6670 319° Northwest 424 488 32,000  Level FlightAware ADS-B
Thu 08:30:26 PM -30.1830 -61.6780 328° Northwest 424 488 32,000  Level FlightAware ADS-B
Thu 08:30:30 PM -30.1740 -61.6830 334° Northwest 425 489 32,000  Level FlightAware ADS-B
Thu 08:30:38 PM -30.1630 -61.6920 325° Northwest 425 489 32,000  Level FlightAware ADS-B
Thu 08:30:46 PM -30.1490 -61.7020 328° Northwest 425 489 32,000  Level FlightAware ADS-B
Thu 08:30:50 PM -30.1430 -61.7060 330° Northwest 425 489 32,000  Level FlightAware ADS-B
Thu 08:31:00 PM -30.1240 -61.7190 329° Northwest 425 489 32,000  Level FlightAware ADS-B
Thu 08:31:06 PM -30.1160 -61.7260 323° Northwest 425 489 32,000  Level FlightAware ADS-B
Thu 08:31:14 PM -30.1040 -61.7350 327° Northwest 425 489 32,000  Level FlightAware ADS-B
Thu 08:31:41 PM -30.0670 -61.7630 327° Northwest 425 489 32,000  Level FlightAware ADS-B
Thu 08:31:53 PM -30.0500 -61.7760 326° Northwest 425 489 32,000  Level FlightAware ADS-B
Thu 08:32:05 PM -30.0330 -61.7880 329° Northwest 425 489 32,000  Level FlightAware ADS-B
Thu 08:32:17 PM -30.0160 -61.8010 326° Northwest 425 489 32,000  Level FlightAware ADS-B
Thu 08:32:29 PM -29.9990 -61.8140 326° Northwest 425 489 32,000  Level FlightAware ADS-B
Thu 08:32:41 PM -29.9820 -61.8260 329° Northwest 425 489 32,000  Level FlightAware ADS-B
Thu 08:32:54 PM -29.9640 -61.8400 326° Northwest 425 489 32,000  Level FlightAware ADS-B
Thu 08:33:06 PM -29.9470 -61.8520 329° Northwest 425 489 32,000  Level FlightAware ADS-B
Thu 08:33:18 PM -29.9310 -61.8650 325° Northwest 425 489 32,000  Level FlightAware ADS-B
Thu 08:33:30 PM -29.9140 -61.8780 326° Northwest 425 489 32,000  Level FlightAware ADS-B
Thu 08:33:42 PM -29.8970 -61.8900 329° Northwest 425 489 32,000  Level FlightAware ADS-B
Thu 08:33:54 PM -29.8800 -61.9030 326° Northwest 425 489 32,000  Level FlightAware ADS-B
Thu 08:34:06 PM -29.8630 -61.9150 329° Northwest 425 489 32,000  Level FlightAware ADS-B
Thu 08:34:18 PM -29.8460 -61.9280 326° Northwest 425 489 32,000  Level FlightAware ADS-B
Thu 08:34:30 PM -29.8300 -61.9410 325° Northwest 425 489 32,000  Level FlightAware ADS-B
Thu 08:34:42 PM -29.8130 -61.9530 329° Northwest 425 489 32,000  Level FlightAware ADS-B
Thu 08:34:54 PM -29.7960 -61.9660 326° Northwest 425 489 32,000  Level FlightAware ADS-B
Thu 08:35:06 PM -29.7790 -61.9780 329° Northwest 425 489 32,000  Level FlightAware ADS-B
Thu 08:35:18 PM -29.7620 -61.9910 326° Northwest 425 489 32,000  Level FlightAware ADS-B
Thu 08:35:30 PM -29.7460 -62.0040 325° Northwest 425 489 32,000  Level FlightAware ADS-B
Thu 08:35:42 PM -29.7290 -62.0160 328° Northwest 425 489 32,000  Level FlightAware ADS-B
Thu 08:35:55 PM -29.7110 -62.0300 326° Northwest 425 489 32,000  Level FlightAware ADS-B
Thu 08:36:07 PM -29.6940 -62.0420 328° Northwest 425 489 32,000  Level FlightAware ADS-B
Thu 08:36:19 PM -29.6770 -62.0550 326° Northwest 425 489 32,000  Level FlightAware ADS-B
Thu 08:36:31 PM -29.6600 -62.0670 328° Northwest 425 489 32,000  Level FlightAware ADS-B
Thu 08:36:43 PM -29.6430 -62.0800 326° Northwest 425 489 32,000  Level FlightAware ADS-B
Thu 08:36:55 PM -29.6260 -62.0930 326° Northwest 425 489 32,000  Level FlightAware ADS-B
Thu 08:37:07 PM -29.6100 -62.1050 327° Northwest 425 489 32,000  Level FlightAware ADS-B
Thu 08:37:19 PM -29.5930 -62.1180 326° Northwest 425 489 32,000  Level FlightAware ADS-B
Thu 08:37:31 PM -29.5760 -62.1300 328° Northwest 425 489 32,000  Level FlightAware ADS-B
Thu 08:37:43 PM -29.5590 -62.1430 326° Northwest 425 489 32,000  Level FlightAware ADS-B
Thu 08:37:55 PM -29.5420 -62.1550 328° Northwest 425 489 32,000  Level FlightAware ADS-B
Thu 08:38:07 PM -29.5250 -62.1680 326° Northwest 425 489 32,000  Level FlightAware ADS-B
Thu 08:38:19 PM -29.5090 -62.1800 327° Northwest 425 489 32,000  Level FlightAware ADS-B
Thu 08:38:28 PM -29.2800 -62.0470 27° Northeast 445 512 32,000  Level FlightAware ADS-B
Thu 08:38:33 PM -29.2680 -62.0490 352° North 445 512 32,000  Level FlightAware ADS-B
Thu 08:38:38 PM -29.2580 -62.0520 345° North 445 512 32,000  Level FlightAware ADS-B
Thu 08:39:03 PM -29.2150 -62.0620 349° North 445 512 32,000  Level FlightAware ADS-B
Thu 08:39:15 PM -29.1940 -62.0670 348° North 445 512 32,000  Level FlightAware ADS-B
Thu 08:39:27 PM -29.1740 -62.0720 348° North 445 512 32,000  Level FlightAware ADS-B
Thu 08:39:39 PM -29.1530 -62.0770 348° North 445 512 32,000  Level FlightAware ADS-B
Thu 08:39:51 PM -29.1330 -62.0820 348° North 445 512 32,000  Level FlightAware ADS-B
Thu 08:40:03 PM -29.1120 -62.0870 348° North 445 512 32,000  Level FlightAware ADS-B
Thu 08:40:15 PM -29.0920 -62.0920 348° North 445 512 32,000  Level FlightAware ADS-B
Thu 08:40:27 PM -29.0710 -62.0970 348° North 445 512 32,000  Level FlightAware ADS-B
Thu 08:40:39 PM -29.0510 -62.1020 348° North 445 512 32,000  Level FlightAware ADS-B
Thu 08:40:51 PM -29.0300 -62.1070 348° North 445 512 32,000  Level FlightAware ADS-B
Thu 08:41:03 PM -29.0090 -62.1120 348° North 445 512 32,000  Level FlightAware ADS-B
Thu 08:41:15 PM -28.9890 -62.1170 348° North 445 512 32,000  Level FlightAware ADS-B
Thu 08:41:27 PM -28.9680 -62.1220 348° North 445 512 32,000  Level FlightAware ADS-B
Thu 08:41:39 PM -28.9480 -62.1270 348° North 445 512 32,000  Level FlightAware ADS-B
Thu 08:41:51 PM -28.9270 -62.1320 348° North 445 512 32,000  Level FlightAware ADS-B
Thu 08:42:04 PM -28.9050 -62.1370 349° North 445 512 32,000  Level FlightAware ADS-B
Thu 08:42:16 PM -28.8840 -62.1420 348° North 445 512 32,000  Level FlightAware ADS-B
Thu 08:42:28 PM -28.8640 -62.1470 348° North 445 512 32,000  Level FlightAware ADS-B
Thu 08:42:40 PM -28.8430 -62.1520 348° North 445 512 32,000  Level FlightAware ADS-B
Thu 08:42:52 PM -28.8230 -62.1570 348° North 445 512 32,000  Level FlightAware ADS-B
Thu 08:43:05 PM -28.8010 -62.1630 347° North 445 512 32,000  Level FlightAware ADS-B
Thu 08:43:17 PM -28.7800 -62.1680 348° North 445 512 32,000  Level FlightAware ADS-B
Thu 08:43:29 PM -28.7600 -62.1730 348° North 445 512 32,000  Level FlightAware ADS-B
Thu 08:43:41 PM -28.7390 -62.1780 348° North 445 512 32,000  Level FlightAware ADS-B
Thu 08:43:53 PM -28.7180 -62.1830 348° North 445 512 32,000  Level FlightAware ADS-B
Thu 08:44:05 PM -28.6980 -62.1880 348° North 445 512 32,000  Level FlightAware ADS-B
Thu 08:44:17 PM -28.6770 -62.1930 348° North 445 512 32,000  Level FlightAware ADS-B
Thu 08:44:29 PM -28.6570 -62.1980 348° North 445 512 32,000  Level FlightAware ADS-B
Thu 08:44:41 PM -28.6360 -62.2030 348° North 445 512 32,000  Level FlightAware ADS-B
Thu 08:44:53 PM -28.6160 -62.2080 348° North 445 512 32,000  Level FlightAware ADS-B
Thu 08:45:05 PM -28.5950 -62.2130 348° North 445 512 32,000  Level FlightAware ADS-B
Thu 08:45:17 PM -28.5750 -62.2180 348° North 445 512 32,000  Level FlightAware ADS-B
Thu 08:45:29 PM -28.5540 -62.2230 348° North 445 512 32,000  Level FlightAware ADS-B
Thu 08:45:41 PM -28.5340 -62.2270 350° North 445 512 32,000  Level FlightAware ADS-B
Thu 08:45:53 PM -28.5130 -62.2320 348° North 445 512 32,000  Level FlightAware ADS-B
Thu 08:46:05 PM -28.4920 -62.2370 348° North 445 512 32,000  Level FlightAware ADS-B
Thu 08:46:17 PM -28.4720 -62.2420 348° North 445 512 32,000  Level FlightAware ADS-B
Thu 08:46:29 PM -28.4510 -62.2470 348° North 445 512 32,000  Level FlightAware ADS-B
Thu 08:46:41 PM -28.4310 -62.2520 348° North 445 512 32,000  Level FlightAware ADS-B
Thu 08:46:53 PM -28.4100 -62.2570 348° North 445 512 32,000  Level FlightAware ADS-B
Thu 08:47:05 PM -28.3900 -62.2620 348° North 445 512 32,000  Level FlightAware ADS-B
Thu 08:47:17 PM -28.3690 -62.2670 348° North 445 512 32,000  Level FlightAware ADS-B
Thu 08:47:29 PM -28.3490 -62.2720 348° North 445 512 32,000  Level FlightAware ADS-B
Thu 08:47:41 PM -28.3280 -62.2770 348° North 445 512 32,000  Level FlightAware ADS-B
Thu 08:47:53 PM -28.3080 -62.2820 348° North 445 512 32,000  Level FlightAware ADS-B
Thu 08:48:05 PM -28.2870 -62.2870 348° North 445 512 32,000  Level FlightAware ADS-B
Thu 08:48:17 PM -28.2670 -62.2920 348° North 445 512 32,000  Level FlightAware ADS-B
Thu 08:48:29 PM -28.2460 -62.2970 348° North 445 512 32,000  Level FlightAware ADS-B
Thu 08:48:29 PM -28.2460 -62.2970 340° North 445 512 32,000  Level FlightAware ADS-B
Thu 08:48:29 PM -28.2460 -62.2970 340° North 445 512 32,000  Level FlightAware ADS-B
Thu 08:48:29 PM -28.2460 -62.2970 340° North 445 512 32,000  Level FlightAware ADS-B
Thu 08:48:29 PM -28.2460 -62.2970 340° North 445 512 32,000  Level FlightAware ADS-B
Thu 08:48:29 PM -28.2460 -62.2970 340° North 445 512 32,000  Level FlightAware ADS-B
Thu 08:51:00 PM -27.9497 -62.4203 340° North  Level Estimated
Thu 08:53:00 PM -27.7142 -62.5178 340° North  Level Estimated
Thu 08:55:00 PM -27.4786 -62.6149 340° North  Level Estimated
Thu 08:57:00 PM -27.2429 -62.7116 340° North  Level Estimated
Thu 08:59:00 PM -27.0072 -62.8079 340° North  Level Estimated
Thu 09:01:00 PM -26.7713 -62.9038 340° North  Level Estimated
Thu 09:02:00 PM -26.6534 -62.9515 340° North  Level Estimated
Thu 09:03:00 PM -26.5355 -62.9992 340° North  Level Estimated
Thu 09:04:00 PM -26.4175 -63.0468 340° North  Level Estimated
Thu 09:05:00 PM -26.2995 -63.0943 340° North  Level Estimated
Thu 09:06:00 PM -26.1815 -63.1417 340° North  Level Estimated
Thu 09:07:00 PM -26.0635 -63.1890 340° North  Level Estimated
Thu 09:08:00 PM -25.9455 -63.2362 340° North  Level Estimated
Thu 09:09:00 PM -25.8275 -63.2833 340° North  Level Estimated
Thu 09:10:00 PM -25.7094 -63.3303 340° North  Level Estimated
Thu 09:11:00 PM -25.5914 -63.3773 340° North  Level Estimated
Thu 09:12:00 PM -25.4733 -63.4241 340° North  Level Estimated
Thu 09:13:00 PM -25.3552 -63.4708 340° North  Level Estimated
Thu 09:14:00 PM -25.2371 -63.5175 340° North  Level Estimated
Thu 09:15:00 PM -25.1189 -63.5640 340° North  Level Estimated
Thu 09:16:00 PM -25.0008 -63.6105 340° North  Level Estimated
Thu 09:17:00 PM -24.8827 -63.6569 340° North  Level Estimated
Thu 09:18:00 PM -24.7645 -63.7032 340° North  Level Estimated
Thu 09:19:00 PM -24.6463 -63.7494 340° North  Level Estimated
Thu 09:20:00 PM -24.5281 -63.7955 340° North  Level Estimated
Thu 09:21:00 PM -24.4099 -63.8415 340° North  Level Estimated
Thu 09:22:00 PM -24.2917 -63.8875 340° North  Level Estimated
Thu 09:23:00 PM -24.1734 -63.9333 341° North  Level Estimated
Thu 09:24:00 PM -24.0552 -63.9791 341° North  Level Estimated
Thu 09:25:00 PM -23.9369 -64.0248 341° North  Level Estimated
Thu 09:26:00 PM -23.8186 -64.0704 341° North  Level Estimated
Thu 09:27:00 PM -23.7003 -64.1159 341° North  Level Estimated
Thu 09:28:00 PM -23.5820 -64.1613 341° North  Level Estimated
Thu 09:29:00 PM -23.4637 -64.2067 341° North  Level Estimated
Thu 09:30:00 PM -23.3454 -64.2519 341° North  Level Estimated
Thu 09:31:00 PM -23.2270 -64.2971 341° North  Level Estimated
Thu 09:32:00 PM -23.1087 -64.3422 341° North  Level Estimated
Thu 09:33:00 PM -22.9903 -64.3873 341° North  Level Estimated
Thu 09:34:00 PM -22.8719 -64.4322 341° North  Level Estimated
Thu 09:35:00 PM -22.7535 -64.4771 341° North  Level Estimated
Thu 09:36:00 PM -22.6351 -64.5219 341° North  Level Estimated
Thu 09:37:00 PM -22.5167 -64.5666 341° North  Level Estimated
Thu 09:38:00 PM -22.3983 -64.6113 341° North  Level Estimated
Thu 09:39:00 PM -22.2798 -64.6558 341° North  Level Estimated
Thu 09:40:00 PM -22.1613 -64.7003 341° North  Level Estimated
Thu 09:41:00 PM -22.0429 -64.7447 341° North  Level Estimated
Thu 09:42:00 PM -21.9244 -64.7891 341° North  Level Estimated
Thu 09:43:00 PM -21.8059 -64.8334 341° North  Level Estimated
Thu 09:44:00 PM -21.6874 -64.8775 341° North  Level Estimated
Thu 09:45:00 PM -21.5689 -64.9217 341° North  Level Estimated
Thu 09:46:00 PM -21.4503 -64.9657 341° North  Level Estimated
Thu 09:47:00 PM -21.3318 -65.0097 341° North  Level Estimated
Thu 09:48:00 PM -21.2132 -65.0536 341° North  Level Estimated
Thu 09:49:00 PM -21.0947 -65.0975 341° North  Level Estimated
Thu 09:50:00 PM -20.9761 -65.1412 341° North  Level Estimated
Thu 09:51:00 PM -20.8575 -65.1849 341° North  Level Estimated
Thu 09:52:00 PM -20.7389 -65.2286 341° North  Level Estimated
Thu 09:53:00 PM -20.6203 -65.2721 341° North  Level Estimated
Thu 09:54:00 PM -20.5017 -65.3156 341° North  Level Estimated
Thu 09:55:00 PM -20.3831 -65.3590 341° North  Level Estimated
Thu 09:56:00 PM -20.2644 -65.4024 341° North  Level Estimated
Thu 09:57:00 PM -20.1458 -65.4457 341° North  Level Estimated
Thu 09:58:00 PM -20.0271 -65.4889 341° North  Level Estimated
Thu 09:59:00 PM -19.9084 -65.5321 341° North  Level Estimated
Thu 10:00:00 PM -19.7898 -65.5752 341° North  Level Estimated
Thu 10:01:00 PM -19.6711 -65.6182 341° North  Level Estimated
Thu 10:02:00 PM -19.5524 -65.6612 341° North  Level Estimated
Thu 10:03:00 PM -19.4337 -65.7041 341° North  Level Estimated
Thu 10:04:00 PM -19.3150 -65.7469 341° North  Level Estimated
Thu 10:05:00 PM -19.1962 -65.7897 341° North  Level Estimated
Thu 10:06:00 PM -19.0775 -65.8324 341° North  Level Estimated
Thu 10:07:00 PM -18.9587 -65.8751 341° North  Level Estimated
Thu 10:08:00 PM -18.8400 -65.9177 341° North  Level Estimated
Thu 10:09:00 PM -18.7212 -65.9602 341° North  Level Estimated
Thu 10:10:00 PM -18.6024 -66.0027 341° North  Level Estimated
Thu 10:11:00 PM -18.4836 -66.0451 341° North  Level Estimated
Thu 10:12:00 PM -18.3648 -66.0875 341° North  Level Estimated
Thu 10:13:00 PM -18.2460 -66.1298 341° North  Level Estimated
Thu 10:14:00 PM -18.1272 -66.1720 341° North  Level Estimated
Thu 10:15:00 PM -18.0084 -66.2142 341° North  Level Estimated
Thu 10:16:00 PM -17.8895 -66.2563 341° North  Level Estimated
Thu 10:17:00 PM -17.7707 -66.2984 341° North  Level Estimated
Thu 10:18:00 PM -17.6518 -66.3404 341° North  Level Estimated
Thu 10:19:00 PM -17.5330 -66.3824 341° North  Level Estimated
Thu 10:20:00 PM -17.4141 -66.4243 341° North  Level Estimated
Thu 10:21:00 PM -17.2952 -66.4661 341° North  Level Estimated
Thu 10:22:00 PM -17.1763 -66.5079 341° North  Level Estimated
Thu 10:23:00 PM -17.0574 -66.5497 341° North  Level Estimated
Thu 10:24:00 PM -16.9385 -66.5914 341° North  Level Estimated
Thu 10:25:00 PM -16.8196 -66.6330 341° North  Level Estimated
Thu 10:26:00 PM -16.7007 -66.6746 341° North  Level Estimated
Thu 10:27:00 PM -16.5817 -66.7162 341° North  Level Estimated
Thu 10:28:00 PM -16.4628 -66.7576 342° North  Level Estimated
Thu 10:29:00 PM -16.3438 -66.7991 342° North  Level Estimated
Thu 10:30:00 PM -16.2249 -66.8404 342° North  Level Estimated
Thu 10:31:00 PM -16.1059 -66.8818 342° North  Level Estimated
Thu 10:32:00 PM -15.9869 -66.9231 342° North  Level Estimated
Thu 10:33:00 PM -15.8680 -66.9643 342° North  Level Estimated
Thu 10:34:00 PM -15.7490 -67.0055 342° North  Level Estimated
Thu 10:35:00 PM -15.6300 -67.0466 342° North  Level Estimated
Thu 10:36:00 PM -15.5110 -67.0877 342° North  Level Estimated
Thu 10:37:00 PM -15.3920 -67.1288 342° North  Level Estimated
Thu 10:38:00 PM -15.2730 -67.1697 342° North  Level Estimated
Thu 10:39:00 PM -15.1539 -67.2107 342° North  Level Estimated
Thu 10:40:00 PM -15.0349 -67.2516 342° North  Level Estimated
Thu 10:41:00 PM -14.9158 -67.2925 342° North  Level Estimated
Thu 10:42:00 PM -14.7968 -67.3333 342° North  Level Estimated
Thu 10:43:00 PM -14.6777 -67.3740 342° North  Level Estimated
Thu 10:44:00 PM -14.5587 -67.4148 342° North  Level Estimated
Thu 10:45:00 PM -14.4396 -67.4554 342° North  Level Estimated
Thu 10:46:00 PM -14.3205 -67.4961 342° North  Level Estimated
Thu 10:47:00 PM -14.2015 -67.5367 342° North  Level Estimated
Thu 10:48:00 PM -14.0824 -67.5772 342° North  Level Estimated
Thu 10:49:00 PM -13.9633 -67.6177 342° North  Level Estimated
Thu 10:50:00 PM -13.8442 -67.6582 342° North  Level Estimated
Thu 10:51:00 PM -13.7250 -67.6986 342° North  Level Estimated
Thu 10:52:00 PM -13.6059 -67.7390 342° North  Level Estimated
Thu 10:53:00 PM -13.4868 -67.7793 342° North  Level Estimated
Thu 10:54:00 PM -13.3677 -67.8196 342° North  Level Estimated
Thu 10:55:00 PM -13.2485 -67.8599 342° North  Level Estimated
Thu 10:56:00 PM -13.1294 -67.9001 342° North  Level Estimated
Thu 10:57:00 PM -13.0103 -67.9403 342° North  Level Estimated
Thu 10:58:00 PM -12.8911 -67.9805 342° North  Level Estimated
Thu 10:59:00 PM -12.7719 -68.0206 342° North  Level Estimated
Thu 11:00:00 PM -12.6528 -68.0606 342° North  Level Estimated
Thu 11:01:00 PM -12.5336 -68.1007 342° North  Level Estimated
Thu 11:02:00 PM -12.4144 -68.1407 342° North  Level Estimated
Thu 11:03:00 PM -12.2952 -68.1806 342° North  Level Estimated
Thu 11:04:00 PM -12.1760 -68.2205 342° North  Level Estimated
Thu 11:05:00 PM -12.0568 -68.2604 342° North  Level Estimated
Thu 11:06:00 PM -11.9376 -68.3003 342° North  Level Estimated
Thu 11:07:00 PM -11.8184 -68.3401 342° North  Level Estimated
Thu 11:08:00 PM -11.6992 -68.3799 342° North  Level Estimated
Thu 11:09:00 PM -11.5800 -68.4196 342° North  Level Estimated
Thu 11:10:00 PM -11.4608 -68.4593 342° North  Level Estimated
Thu 11:11:00 PM -11.3415 -68.4990 342° North  Level Estimated
Thu 11:12:00 PM -11.2223 -68.5387 342° North  Level Estimated
Thu 11:13:00 PM -11.1031 -68.5783 342° North  Level Estimated
Thu 11:14:00 PM -10.9838 -68.6179 342° North  Level Estimated
Thu 11:15:00 PM -10.8645 -68.6574 342° North  Level Estimated
Thu 11:16:00 PM -10.7453 -68.6969 342° North  Level Estimated
Thu 11:17:00 PM -10.6260 -68.7364 342° North  Level Estimated
Thu 11:18:00 PM -10.5068 -68.7759 342° North  Level Estimated
Thu 11:19:00 PM -10.3875 -68.8153 342° North  Level Estimated
Thu 11:20:00 PM -10.2682 -68.8547 342° North  Level Estimated
Thu 11:21:00 PM -10.1489 -68.8941 342° North  Level Estimated
Thu 11:22:00 PM -10.0296 -68.9334 342° North  Level Estimated
Thu 11:23:00 PM -9.9103 -68.9727 342° North  Level Estimated
Thu 11:24:00 PM -9.7911 -69.0120 342° North  Level Estimated
Thu 11:25:00 PM -9.6718 -69.0513 342° North  Level Estimated
Thu 11:26:00 PM -9.5525 -69.0905 342° North  Level Estimated
Thu 11:27:00 PM -9.4332 -69.1297 342° North  Level Estimated
Thu 11:28:00 PM -9.3138 -69.1689 342° North  Level Estimated
Thu 11:29:00 PM -9.1945 -69.2080 342° North  Level Estimated
Thu 11:30:00 PM -9.0752 -69.2471 342° North  Level Estimated
Thu 11:31:00 PM -8.9559 -69.2862 342° North  Level Estimated
Thu 11:32:00 PM -8.8365 -69.3253 342° North  Level Estimated
Thu 11:33:00 PM -8.7172 -69.3643 342° North  Level Estimated
Thu 11:34:00 PM -8.5979 -69.4033 342° North  Level Estimated
Thu 11:35:00 PM -8.4785 -69.4423 342° North  Level Estimated
Thu 11:36:00 PM -8.3592 -69.4813 342° North  Level Estimated
Thu 11:37:00 PM -8.2399 -69.5202 342° North  Level Estimated
Thu 11:38:00 PM -8.1205 -69.5591 342° North  Level Estimated
Thu 11:39:00 PM -8.0011 -69.5980 342° North  Level Estimated
Thu 11:40:00 PM -7.8818 -69.6369 342° North  Level Estimated
Thu 11:41:00 PM -7.7624 -69.6757 342° North  Level Estimated
Thu 11:42:00 PM -7.6431 -69.7146 342° North  Level Estimated
Thu 11:43:00 PM -7.5237 -69.7534 342° North  Level Estimated
Thu 11:44:00 PM -7.4043 -69.7922 342° North  Level Estimated
Thu 11:45:00 PM -7.2849 -69.8309 342° North  Level Estimated
Thu 11:46:00 PM -7.1656 -69.8697 342° North  Level Estimated
Thu 11:47:00 PM -7.0462 -69.9084 342° North  Level Estimated
Thu 11:48:00 PM -6.9268 -69.9471 342° North  Level Estimated
Thu 11:49:00 PM -6.8074 -69.9857 342° North  Level Estimated
Thu 11:50:00 PM -6.6880 -70.0244 342° North  Level Estimated
Thu 11:51:00 PM -6.5686 -70.0630 342° North  Level Estimated
Thu 11:52:00 PM -6.4492 -70.1017 342° North  Level Estimated
Thu 11:53:00 PM -6.3298 -70.1403 342° North  Level Estimated
Thu 11:54:00 PM -6.2104 -70.1789 342° North  Level Estimated
Thu 11:55:00 PM -6.0910 -70.2175 342° North  Level Estimated
Thu 11:56:00 PM -5.9716 -70.2560 342° North  Level Estimated
Thu 11:57:00 PM -5.8522 -70.2945 342° North  Level Estimated
Thu 11:58:00 PM -5.7327 -70.3331 342° North  Level Estimated
Thu 11:59:00 PM -5.6133 -70.3716 342° North  Level Estimated
Fri 12:00:00 AM -5.4939 -70.4101 342° North  Level Estimated
Fri 12:01:00 AM -5.3745 -70.4485 342° North  Level Estimated
Fri 12:02:00 AM -5.2551 -70.4870 342° North  Level Estimated
Fri 12:03:00 AM -5.1356 -70.5254 342° North  Level Estimated
Fri 12:04:00 AM -5.0162 -70.5639 342° North  Level Estimated
Fri 12:05:00 AM -4.8968 -70.6023 342° North  Level Estimated
Fri 12:06:00 AM -4.7773 -70.6407 342° North  Level Estimated
Fri 12:07:00 AM -4.6579 -70.6791 342° North  Level Estimated
Fri 12:08:00 AM -4.5385 -70.7175 342° North  Level Estimated
Fri 12:09:00 AM -4.4190 -70.7558 342° North  Level Estimated
Fri 12:10:00 AM -4.2996 -70.7942 342° North  Level Estimated
Fri 12:11:00 AM -4.1801 -70.8325 342° North  Level Estimated
Fri 12:12:00 AM -4.0607 -70.8708 342° North  Level Estimated
Fri 12:13:00 AM -3.9412 -70.9092 342° North  Level Estimated
Fri 12:14:00 AM -3.8218 -70.9475 342° North  Level Estimated
Fri 12:15:00 AM -3.7023 -70.9858 342° North  Level Estimated
Fri 12:16:00 AM -3.5829 -71.0240 342° North  Level Estimated
Fri 12:17:00 AM -3.4634 -71.0623 342° North  Level Estimated
Fri 12:18:00 AM -3.3440 -71.1006 342° North  Level Estimated
Fri 12:19:00 AM -3.2245 -71.1388 342° North  Level Estimated
Fri 12:20:00 AM -3.1051 -71.1771 342° North  Level Estimated
Fri 12:21:00 AM -2.9856 -71.2153 342° North  Level Estimated
Fri 12:22:00 AM -2.8661 -71.2535 342° North  Level Estimated
Fri 12:23:00 AM -2.7467 -71.2918 342° North  Level Estimated
Fri 12:24:00 AM -2.6272 -71.3300 342° North  Level Estimated
Fri 12:25:00 AM -2.5078 -71.3682 342° North  Level Estimated
Fri 12:26:00 AM -2.3883 -71.4064 342° North  Level Estimated
Fri 12:27:00 AM -2.2688 -71.4446 342° North  Level Estimated
Fri 12:28:00 AM -2.1493 -71.4828 342° North  Level Estimated
Fri 12:29:00 AM -2.0299 -71.5210 342° North  Level Estimated
Fri 12:30:00 AM -1.9104 -71.5591 342° North  Level Estimated
Fri 12:31:00 AM -1.7909 -71.5973 342° North  Level Estimated
Fri 12:32:00 AM -1.6715 -71.6355 342° North  Level Estimated
Fri 12:33:00 AM -1.5520 -71.6736 342° North  Level Estimated
Fri 12:34:00 AM -1.4325 -71.7118 342° North  Level Estimated
Fri 12:35:00 AM -1.3131 -71.7499 342° North  Level Estimated
Fri 12:36:00 AM -1.1936 -71.7881 342° North  Level Estimated
Fri 12:37:00 AM -1.0741 -71.8262 342° North  Level Estimated
Fri 12:38:00 AM -0.9546 -71.8643 342° North  Level Estimated
Fri 12:39:00 AM -0.8351 -71.9025 342° North  Level Estimated
Fri 12:40:00 AM -0.7157 -71.9406 342° North  Level Estimated
Fri 12:41:00 AM -0.5962 -71.9788 342° North  Level Estimated
Fri 12:42:00 AM -0.4767 -72.0169 342° North  Level Estimated
Fri 12:43:00 AM -0.3572 -72.0550 342° North  Level Estimated
Fri 12:44:00 AM -0.2377 -72.0931 342° North  Level Estimated
Fri 12:45:00 AM -0.1182 -72.1313 342° North  Level Estimated
Fri 12:46:00 AM 0.0012 -72.1694 342° North  Level Estimated
Fri 12:47:00 AM 0.1207 -72.2075 342° North  Level Estimated
Fri 12:48:00 AM 0.2402 -72.2457 342° North  Level Estimated
Fri 12:49:00 AM 0.3597 -72.2838 342° North  Level Estimated
Fri 12:50:00 AM 0.4791 -72.3219 342° North  Level Estimated
Fri 12:51:00 AM 0.5986 -72.3601 342° North  Level Estimated
Fri 12:52:00 AM 0.7181 -72.3982 342° North  Level Estimated
Fri 12:53:00 AM 0.8376 -72.4363 342° North  Level Estimated
Fri 12:54:00 AM 0.9571 -72.4745 342° North  Level Estimated
Fri 12:55:00 AM 1.0766 -72.5126 342° North  Level Estimated
Fri 12:56:00 AM 1.1960 -72.5508 342° North  Level Estimated
Fri 12:57:00 AM 1.3155 -72.5889 342° North  Level Estimated
Fri 12:58:00 AM 1.4350 -72.6271 342° North  Level Estimated
Fri 12:59:00 AM 1.5545 -72.6652 342° North  Level Estimated
Fri 01:00:00 AM 1.6739 -72.7034 342° North  Level Estimated
Fri 01:01:00 AM 1.7934 -72.7415 342° North  Level Estimated
Fri 01:02:00 AM 1.9129 -72.7797 342° North  Level Estimated
Fri 01:03:00 AM 2.0323 -72.8179 342° North  Level Estimated
Fri 01:04:00 AM 2.1518 -72.8561 342° North  Level Estimated
Fri 01:05:00 AM 2.2713 -72.8942 342° North  Level Estimated
Fri 01:06:00 AM 2.3907 -72.9324 342° North  Level Estimated
Fri 01:07:00 AM 2.5102 -72.9706 342° North  Level Estimated
Fri 01:08:00 AM 2.6297 -73.0089 342° North  Level Estimated
Fri 01:09:00 AM 2.7491 -73.0471 342° North  Level Estimated
Fri 01:10:00 AM 2.8686 -73.0853 342° North  Level Estimated
Fri 01:11:00 AM 2.9881 -73.1235 342° North  Level Estimated
Fri 01:12:00 AM 3.1075 -73.1618 342° North  Level Estimated
Fri 01:13:00 AM 3.2270 -73.2000 342° North  Level Estimated
Fri 01:14:00 AM 3.3464 -73.2383 342° North  Level Estimated
Fri 01:15:00 AM 3.4659 -73.2765 342° North  Level Estimated
Fri 01:16:00 AM 3.5854 -73.3148 342° North  Level Estimated
Fri 01:17:00 AM 3.7048 -73.3531 342° North  Level Estimated
Fri 01:18:00 AM 3.8242 -73.3914 342° North  Level Estimated
Fri 01:19:00 AM 3.9437 -73.4297 342° North  Level Estimated
Fri 01:20:00 AM 4.0631 -73.4680 342° North  Level Estimated
Fri 01:21:00 AM 4.1826 -73.5063 342° North  Level Estimated
Fri 01:22:00 AM 4.3020 -73.5447 342° North  Level Estimated
Fri 01:23:00 AM 4.4215 -73.5830 342° North  Level Estimated
Fri 01:24:00 AM 4.5409 -73.6214 342° North  Level Estimated
Fri 01:25:00 AM 4.6604 -73.6598 342° North  Level Estimated
Fri 01:26:00 AM 4.7798 -73.6981 342° North  Level Estimated
Fri 01:27:00 AM 4.8992 -73.7365 342° North  Level Estimated
Fri 01:28:00 AM 5.0187 -73.7750 342° North  Level Estimated
Fri 01:29:00 AM 5.1381 -73.8134 342° North  Level Estimated
Fri 01:30:00 AM 5.2575 -73.8518 342° North  Level Estimated
Fri 01:31:00 AM 5.3769 -73.8903 342° North  Level Estimated
Fri 01:32:00 AM 5.4964 -73.9288 342° North  Level Estimated
Fri 01:33:00 AM 5.6158 -73.9673 342° North  Level Estimated
Fri 01:34:00 AM 5.7352 -74.0058 342° North  Level Estimated
Fri 01:35:00 AM 5.8546 -74.0443 342° North  Level Estimated
Fri 01:36:00 AM 5.9740 -74.0828 342° North  Level Estimated
Fri 01:37:00 AM 6.0935 -74.1214 342° North  Level Estimated
Fri 01:38:00 AM 6.2129 -74.1600 342° North  Level Estimated
Fri 01:39:00 AM 6.3323 -74.1986 342° North  Level Estimated
Fri 01:40:00 AM 6.4517 -74.2372 342° North  Level Estimated
Fri 01:41:00 AM 6.5711 -74.2758 342° North  Level Estimated
Fri 01:42:00 AM 6.6905 -74.3145 342° North  Level Estimated
Fri 01:43:00 AM 6.8099 -74.3531 342° North  Level Estimated
Fri 01:44:00 AM 6.9292 -74.3918 342° North  Level Estimated
Fri 01:45:00 AM 7.0486 -74.4305 342° North  Level Estimated
Fri 01:46:00 AM 7.1680 -74.4692 342° North  Level Estimated
Fri 01:47:00 AM 7.2874 -74.5079 342° North  Level Estimated
Fri 01:48:00 AM 7.4068 -74.5467 342° North  Level Estimated
Fri 01:49:00 AM 7.5261 -74.5855 342° North  Level Estimated
Fri 01:50:00 AM 7.6455 -74.6243 342° North  Level Estimated
Fri 01:51:00 AM 7.7649 -74.6631 342° North  Level Estimated
Fri 01:52:00 AM 7.8842 -74.7020 342° North  Level Estimated
Fri 01:53:00 AM 8.0036 -74.7409 342° North  Level Estimated
Fri 01:54:00 AM 8.1230 -74.7797 342° North  Level Estimated
Fri 01:55:00 AM 8.2423 -74.8187 342° North  Level Estimated
Fri 01:56:00 AM 8.3617 -74.8576 342° North  Level Estimated
Fri 01:57:00 AM 8.4810 -74.8966 342° North  Level Estimated
Fri 01:58:00 AM 8.6003 -74.9356 342° North  Level Estimated
Fri 01:59:00 AM 8.7197 -74.9746 342° North  Level Estimated
Fri 02:00:00 AM 8.8390 -75.0136 342° North  Level Estimated
Fri 02:01:00 AM 8.9583 -75.0527 342° North  Level Estimated
Fri 02:02:00 AM 9.0777 -75.0918 342° North  Level Estimated
Fri 02:03:00 AM 9.1970 -75.1309 342° North  Level Estimated
Fri 02:04:00 AM 9.3163 -75.1700 342° North  Level Estimated
Fri 02:05:00 AM 9.4356 -75.2092 342° North  Level Estimated
Fri 02:06:00 AM 9.5549 -75.2484 342° North  Level Estimated
Fri 02:07:00 AM 9.6742 -75.2876 342° North  Level Estimated
Fri 02:08:00 AM 9.7935 -75.3269 342° North  Level Estimated
Fri 02:09:00 AM 9.9128 -75.3661 342° North  Level Estimated
Fri 02:10:00 AM 10.0321 -75.4055 342° North  Level Estimated
Fri 02:11:00 AM 10.1514 -75.4448 342° North  Level Estimated
Fri 02:12:00 AM 10.2707 -75.4842 342° North  Level Estimated
Fri 02:13:00 AM 10.3899 -75.5236 342° North  Level Estimated
Fri 02:14:00 AM 10.5092 -75.5630 342° North  Level Estimated
Fri 02:15:00 AM 10.6285 -75.6025 342° North  Level Estimated
Fri 02:16:00 AM 10.7478 -75.6420 342° North  Level Estimated
Fri 02:17:00 AM 10.8670 -75.6815 342° North  Level Estimated
Fri 02:18:00 AM 10.9863 -75.7210 342° North  Level Estimated
Fri 02:19:00 AM 11.1055 -75.7606 342° North  Level Estimated
Fri 02:20:00 AM 11.2247 -75.8002 342° North  Level Estimated
Fri 02:21:00 AM 11.3440 -75.8399 342° North  Level Estimated
Fri 02:22:00 AM 11.4632 -75.8795 342° North  Level Estimated
Fri 02:23:00 AM 11.5824 -75.9193 342° North  Level Estimated
Fri 02:24:00 AM 11.7017 -75.9590 342° North  Level Estimated
Fri 02:25:00 AM 11.8209 -75.9988 342° North  Level Estimated
Fri 02:26:00 AM 11.9401 -76.0386 342° North  Level Estimated
Fri 02:27:00 AM 12.0593 -76.0785 342° North  Level Estimated
Fri 02:28:00 AM 12.1785 -76.1183 342° North  Level Estimated
Fri 02:29:00 AM 12.2977 -76.1583 342° North  Level Estimated
Fri 02:30:00 AM 12.4169 -76.1982 342° North  Level Estimated
Fri 02:31:00 AM 12.5360 -76.2382 342° North  Level Estimated
Fri 02:32:00 AM 12.6552 -76.2783 342° North  Level Estimated
Fri 02:33:00 AM 12.7744 -76.3183 342° North  Level Estimated
Fri 02:34:00 AM 12.8935 -76.3584 342° North  Level Estimated
Fri 02:35:00 AM 13.0127 -76.3986 342° North  Level Estimated
Fri 02:36:00 AM 13.1319 -76.4388 342° North  Level Estimated
Fri 02:37:00 AM 13.2510 -76.4790 342° North  Level Estimated
Fri 02:38:00 AM 13.3701 -76.5193 342° North  Level Estimated
Fri 02:39:00 AM 13.4893 -76.5596 342° North  Level Estimated
Fri 02:40:00 AM 13.6084 -76.5999 342° North  Level Estimated
Fri 02:41:00 AM 13.7275 -76.6403 342° North  Level Estimated
Fri 02:42:00 AM 13.8466 -76.6807 342° North  Level Estimated
Fri 02:43:00 AM 13.9657 -76.7212 342° North  Level Estimated
Fri 02:44:00 AM 14.0848 -76.7617 342° North  Level Estimated
Fri 02:45:00 AM 14.2039 -76.8022 342° North  Level Estimated
Fri 02:46:00 AM 14.3230 -76.8428 342° North  Level Estimated
Fri 02:47:00 AM 14.4421 -76.8835 342° North  Level Estimated
Fri 02:48:00 AM 14.5611 -76.9241 342° North  Level Estimated
Fri 02:49:00 AM 14.6802 -76.9649 342° North  Level Estimated
Fri 02:50:00 AM 14.7992 -77.0056 342° North  Level Estimated
Fri 02:51:00 AM 14.9183 -77.0464 342° North  Level Estimated
Fri 02:52:00 AM 15.0373 -77.0873 342° North  Level Estimated
Fri 02:53:00 AM 15.1564 -77.1282 342° North  Level Estimated
Fri 02:54:00 AM 15.2754 -77.1692 342° North  Level Estimated
Fri 02:55:00 AM 15.3944 -77.2102 342° North  Level Estimated
Fri 02:56:00 AM 15.5134 -77.2512 342° North  Level Estimated
Fri 02:57:00 AM 15.6324 -77.2923 342° North  Level Estimated
Fri 02:58:00 AM 15.7514 -77.3334 342° North  Level Estimated
Fri 02:59:00 AM 15.8704 -77.3746 342° North  Level Estimated
Fri 03:00:00 AM 15.9894 -77.4159 342° North  Level Estimated
Fri 03:01:00 AM 16.1084 -77.4572 342° North  Level Estimated
Fri 03:02:00 AM 16.2273 -77.4985 342° North  Level Estimated
Fri 03:03:00 AM 16.3463 -77.5399 342° North  Level Estimated
Fri 03:04:00 AM 16.4653 -77.5813 342° North  Level Estimated
Fri 03:05:00 AM 16.5842 -77.6228 342° North  Level Estimated
Fri 03:06:00 AM 16.7031 -77.6643 342° North  Level Estimated
Fri 03:07:00 AM 16.8220 -77.7059 341° North  Level Estimated
Fri 03:08:00 AM 16.9410 -77.7476 341° North  Level Estimated
Fri 03:09:00 AM 17.0599 -77.7893 341° North  Level Estimated
Fri 03:10:00 AM 17.1788 -77.8310 341° North  Level Estimated
Fri 03:11:00 AM 17.2977 -77.8728 341° North  Level Estimated
Fri 03:12:00 AM 17.4165 -77.9146 341° North  Level Estimated
Fri 03:13:00 AM 17.5354 -77.9566 341° North  Level Estimated
Fri 03:14:00 AM 17.6543 -77.9985 341° North  Level Estimated
Fri 03:15:00 AM 17.7731 -78.0405 341° North  Level Estimated
Fri 03:16:00 AM 17.8920 -78.0826 341° North  Level Estimated
Fri 03:17:00 AM 18.0108 -78.1247 341° North  Level Estimated
Fri 03:18:00 AM 18.1297 -78.1669 341° North  Level Estimated
Fri 03:19:00 AM 18.2485 -78.2092 341° North  Level Estimated
Fri 03:20:00 AM 18.3673 -78.2515 341° North  Level Estimated
Fri 03:21:00 AM 18.4861 -78.2939 341° North  Level Estimated
Fri 03:22:00 AM 18.6049 -78.3363 341° North  Level Estimated
Fri 03:23:00 AM 18.7236 -78.3788 341° North  Level Estimated
Fri 03:24:00 AM 18.8424 -78.4213 341° North  Level Estimated
Fri 03:25:00 AM 18.9612 -78.4639 341° North  Level Estimated
Fri 03:26:00 AM 19.0799 -78.5066 341° North  Level Estimated
Fri 03:27:00 AM 19.1987 -78.5493 341° North  Level Estimated
Fri 03:28:00 AM 19.3174 -78.5920 341° North  Level Estimated
Fri 03:29:00 AM 19.4361 -78.6349 341° North  Level Estimated
Fri 03:30:00 AM 19.5548 -78.6778 341° North  Level Estimated
Fri 03:31:00 AM 19.6735 -78.7208 341° North  Level Estimated
Fri 03:32:00 AM 19.7922 -78.7638 341° North  Level Estimated
Fri 03:33:00 AM 19.9109 -78.8069 341° North  Level Estimated
Fri 03:34:00 AM 20.0296 -78.8501 341° North  Level Estimated
Fri 03:35:00 AM 20.1482 -78.8933 341° North  Level Estimated
Fri 03:36:00 AM 20.2669 -78.9366 341° North  Level Estimated
Fri 03:37:00 AM 20.3855 -78.9800 341° North  Level Estimated
Fri 03:38:00 AM 20.5042 -79.0234 341° North  Level Estimated
Fri 03:39:00 AM 20.6228 -79.0669 341° North  Level Estimated
Fri 03:40:00 AM 20.7414 -79.1105 341° North  Level Estimated
Fri 03:41:00 AM 20.8600 -79.1541 341° North  Level Estimated
Fri 03:42:00 AM 20.9786 -79.1978 341° North  Level Estimated
Fri 03:43:00 AM 21.0971 -79.2416 341° North  Level Estimated
Fri 03:44:00 AM 21.2157 -79.2854 341° North  Level Estimated
Fri 03:45:00 AM 21.3342 -79.3293 341° North  Level Estimated
Fri 03:45:29 AM 23.2225 -78.0911 341° North 460 529 32,000  Level Miami Center
Fri 03:46:00 AM 21.4528 -79.3733 341° North  Level Estimated
Fri 03:46:27 AM 23.3392 -78.1486 336° Northwest 460 529 32,000  Level Miami Center
Fri 03:47:00 AM 21.5713 -79.4173 341° North  Level Estimated
Fri 03:47:27 AM 23.4514 -78.2019 336° Northwest 452 520 32,000  Level Miami Center
Fri 03:48:00 AM 21.6898 -79.4615 341° North  Level Estimated
Fri 03:48:27 AM 23.5681 -78.2600 335° Northwest 452 520 32,000  Level Miami Center
Fri 03:49:00 AM 21.8083 -79.5057 341° North  Level Estimated
Fri 03:49:29 AM 23.6825 -78.3086 339° North 452 520 32,000  Level Miami Center
Fri 03:50:00 AM 21.9268 -79.5499 341° North  Level Estimated
Fri 03:50:28 AM 23.7969 -78.3622 337° Northwest 457 526 32,000  Level Miami Center
Fri 03:51:28 AM 23.9175 -78.4228 335° Northwest 457 526 32,000  Level Miami Center
Fri 03:52:29 AM 24.0297 -78.4742 337° Northwest 450 518 32,000  Level Miami Center
Fri 03:53:29 AM 24.1483 -78.5281 337° Northwest 450 518 32,000  Level Miami Center
Fri 03:54:27 AM 24.2647 -78.5822 337° Northwest 455 524 32,000  Level Miami Center
Fri 03:55:29 AM 24.3872 -78.6361 338° Northwest 461 531 32,000  Level Miami Center
Fri 03:56:27 AM 24.4892 -78.6833 337° Northwest 455 524 32,000  Level Miami Center
Fri 03:57:27 AM 24.6097 -78.7378 338° Northwest 456 525 32,000  Level Miami Center
Fri 03:58:27 AM 24.7239 -78.7897 338° Northwest 456 525 32,000  Level Miami Center
Fri 03:59:27 AM 24.8422 -78.8442 337° Northwest 461 531 32,000  Level Miami Center
Fri 04:00:28 AM 24.9608 -78.8989 337° Northwest 455 524 32,000  Level Miami Center
Fri 04:01:27 AM 25.0769 -78.9489 339° North 455 524 32,000  Level Miami Center
Fri 04:02:29 AM 25.1953 -79.0039 337° Northwest 455 524 32,000  Level Miami Center
Fri 04:03:29 AM 25.3136 -79.0589 337° Northwest 455 524 32,000  Level Miami Center
Fri 04:04:27 AM 25.4319 -79.1114 338° Northwest 455 524 32,000  Level Miami Center
Fri 04:05:27 AM 25.5503 -79.1667 337° Northwest 455 524 32,000  Level Miami Center
Fri 04:06:28 AM 25.6642 -79.2219 336° Northwest 455 524 32,000  Level Miami Center
Fri 04:07:29 AM 25.7717 -79.2908 330° Northwest 445 512 32,000  Level Miami Center
Fri 04:08:29 AM 25.8811 -79.3808 324° Northwest 445 512 32,000  Level Miami Center
Fri 04:09:29 AM 25.9694 -79.4589 322° Northwest 450 518 32,000  Level Miami Center
Fri 04:10:29 AM 26.0703 -79.5422 323° Northwest 457 526 32,000  Level Miami Center
Fri 04:11:29 AM 26.1711 -79.6278 323° Northwest 457 526 32,000  Level Miami Center
Fri 04:12:27 AM 26.2781 -79.7114 325° Northwest 447 514 32,000  Level Miami Center
Fri 04:13:27 AM 26.3772 -79.7739 331° Northwest 442 509 32,000  Level Miami Center
Fri 04:14:27 AM 26.4969 -79.8467 331° Northwest 442 509 32,000  Level Miami Center
Fri 04:15:28 AM 26.5958 -79.9094 330° Northwest 447 514 32,000  Level Miami Center
Fri 04:16:27 AM 26.7175 -79.9756 334° Northwest 447 514 32,000  Level Miami Center
Fri 04:17:27 AM 26.8356 -80.0228 340° North 441 507 32,000  Level Miami Center
Fri 04:18:27 AM 26.9514 -80.0725 339° North 441 507 32,000  Level Miami Center
Fri 04:19:29 AM 27.0467 -80.1103 341° North 448 516 32,000  Level Miami Center
Fri 04:20:27 AM 27.1728 -80.1675 338° Northwest 448 516 32,000  Level Miami Center
Fri 04:21:29 AM 27.2886 -80.2150 340° North 448 516 32,000  Level Miami Center
Fri 04:22:29 AM 27.4044 -80.2606 341° North 443 510 32,000  Level Miami Center
Fri 04:23:27 AM 27.5222 -80.3108 339° North 443 510 32,000  Level Miami Center
Fri 04:24:27 AM 27.6403 -80.3589 340° North 443 510 32,000  Level Miami Center
Fri 04:25:29 AM 27.7517 -80.4047 340° North 443 510 32,000  Level Miami Center
Fri 04:26:30 AM 27.8778 -80.4556 340° North 438 504 32,000  Level Miami Center
Fri 04:27:27 AM 27.9914 -80.5061 339° North 432 497 32,000  Level Miami Center
Fri 04:28:28 AM 28.1050 -80.5522 340° North 427 491 32,000  Level Miami Center
Fri 04:29:28 AM 28.2164 -80.5983 340° North 427 491 32,000  Level Miami Center
Fri 04:30:29 AM 28.3319 -80.6492 339° North 432 497 32,000  Level Miami Center
Fri 04:31:29 AM 28.4433 -80.6956 340° North 427 491 32,000  Level Miami Center
Fri 04:34:42 AM 28.8078 -80.8478 340° North 420 483 32,000  Level Jacksonville Center
Fri 04:35:42 AM 28.9192 -80.8975 339° North 426 490 32,000  Level Jacksonville Center
Fri 04:36:42 AM 29.0306 -80.9453 339° North 426 490 32,000  Level Jacksonville Center
Fri 04:37:42 AM 29.1417 -80.9931 339° North 432 497 32,000  Level Jacksonville Center
Fri 04:38:42 AM 29.2531 -81.0408 339° North 432 497 32,000  Level Jacksonville Center
Fri 04:39:42 AM 29.3625 -81.0936 337° Northwest 432 497 32,000  Level Jacksonville Center
Fri 04:40:42 AM 29.4697 -81.1536 334° Northwest 427 491 32,000  Level Jacksonville Center
Fri 04:41:42 AM 29.5689 -81.2258 328° Northwest 421 484 32,000  Level Jacksonville Center
Fri 04:42:42 AM 29.6700 -81.2983 328° Northwest 421 484 32,000  Level Jacksonville Center
Fri 04:43:42 AM 29.7731 -81.3683 329° Northwest 426 490 32,000  Level Jacksonville Center
Fri 04:44:42 AM 29.8742 -81.4386 329° Northwest 432 497 32,000  Level Jacksonville Center
Fri 04:45:42 AM 29.9792 -81.5114 329° Northwest 432 497 32,000  Level Jacksonville Center
Fri 04:46:42 AM 30.0822 -81.5819 329° Northwest 432 497 32,000  Level Jacksonville Center
Fri 04:47:42 AM 30.1875 -81.6575 328° Northwest 432 497 32,000  Level Jacksonville Center
Fri 04:48:42 AM 30.2883 -81.7233 331° Northwest 432 497 32,000  Level Jacksonville Center
Fri 04:49:42 AM 30.3808 -81.7897 328° Northwest 427 491 32,000  Level Jacksonville Center
Fri 04:50:42 AM 30.4836 -81.8633 328° Northwest 433 498 32,000  Level Jacksonville Center
Fri 04:51:42 AM 30.5908 -81.9417 328° Northwest 441 507 32,000  Level Jacksonville Center
Fri 04:52:42 AM 30.6914 -82.0156 328° Northwest 441 507 32,000  Level Jacksonville Center
Fri 04:53:42 AM 30.7922 -82.0872 329° Northwest 436 502 32,000  Level Jacksonville Center
Fri 04:54:42 AM 30.8950 -82.1592 329° Northwest 436 502 32,000  Level Jacksonville Center
Fri 04:55:42 AM 30.9956 -82.2333 328° Northwest 436 502 32,000  Level Jacksonville Center
Fri 04:56:42 AM 31.0983 -82.3078 328° Northwest 436 502 32,000  Level Jacksonville Center
Fri 04:57:42 AM 31.1989 -82.3778 329° Northwest 436 502 32,000  Level Jacksonville Center
Fri 05:00:09 AM 31.4561 -82.5636 328° Northwest 431 496 32,000  Level Atlanta Center
Fri 05:01:09 AM 31.5592 -82.6375 329° Northwest 431 496 32,000  Level Atlanta Center
Fri 05:02:09 AM 31.6622 -82.7092 329° Northwest 431 496 32,000  Level Atlanta Center
Fri 05:03:09 AM 31.7653 -82.7783 330° Northwest 431 496 32,000  Level Atlanta Center
Fri 05:04:09 AM 31.8661 -82.8528 328° Northwest 431 496 32,000  Level Atlanta Center
Fri 05:05:09 AM 31.9692 -82.9250 329° Northwest 431 496 32,000  Level Atlanta Center
Fri 05:06:09 AM 32.0719 -82.9947 330° Northwest 431 496 32,000  Level Atlanta Center
Fri 05:07:09 AM 32.1728 -83.0672 329° Northwest 431 496 32,000  Level Atlanta Center
Fri 05:08:09 AM 32.2756 -83.1372 330° Northwest 431 496 32,000  Level Atlanta Center
Fri 05:09:09 AM 32.3783 -83.2100 329° Northwest 431 496 32,000 -1,000 Level Atlanta Center
Fri 05:10:09 AM 32.4811 -83.2828 329° Northwest 431 496 30,000 -2,350 Descending Atlanta Center
Fri 05:11:09 AM 32.5839 -83.3586 328° Northwest 431 496 27,300 -2,200 Descending Atlanta Center
Fri 05:12:09 AM 32.6906 -83.4317 330° Northwest 438 504 25,600 -2,150 Descending Atlanta Center
Fri 05:13:09 AM 32.7933 -83.5050 329° Northwest 438 504 23,000 -2,550 Descending Atlanta Center
Fri 05:14:09 AM 32.8917 -83.5786 328° Northwest 433 498 20,500 -2,500 Descending Atlanta Center
Fri 05:15:09 AM 32.9878 -83.6475 329° Northwest 417 480 18,000 -2,450 Descending Atlanta Center
Fri 05:16:09 AM 33.0819 -83.7139 329° Northwest 405 466 15,600 -2,300 Descending Atlanta Center
Fri 05:17:09 AM 33.1678 -83.7783 328° Northwest 385 443 13,400 -1,800 Descending Atlanta Center
Fri 05:18:09 AM 33.2431 -83.8475 322° Northwest 358 412 12,000 -1,150 Descending Atlanta Center
Fri 05:19:09 AM 33.3142 -83.9294 316° Northwest 353 406 11,100 -1,050 Descending Atlanta Center
Fri 05:20:09 AM 33.3892 -83.9939 324° Northwest 345 397 9,900 -1,350 Descending Atlanta Center
Fri 05:21:09 AM 33.4519 -84.0489 324° Northwest 305 351 8,400 -1,700 Descending Atlanta Center
Fri 05:22:09 AM 33.5125 -84.0986 326° Northwest 277 319 6,500 -1,700 Descending Atlanta Center
Fri 05:23:09 AM 33.5689 -84.1436 326° Northwest 251 289 5,000 -1,150 Descending Atlanta Center
Fri 05:24:09 AM 33.6167 -84.1811 327° Northwest 218 251 4,200 -695 Descending Atlanta Center
Fri 05:24:44 AM 33.6500 -84.2000 335° Northwest 189 217 3,900 -472 Descending Atlanta TRACON
Fri 05:25:38 AM 33.6500 -84.2500 270° West 179 206 3,500 -667 Descending Atlanta TRACON
Fri 05:26:32 AM 33.6500 -84.3000 270° West 180 207 2,700 -895 Descending Atlanta TRACON
Fri 05:27:32 AM 33.6500 -84.3667 270° West 145 167 1,800 -900 Descending Atlanta TRACON

Login

Don't have an account? Register now (free) for customized features, flight alerts, and more!